Terminal Aerodrome Forecast
Issued by NWS Detroit/Pontiac, MI

Home | Current Version | Previous Version | Text Only | Print | Product List | Glossary On
Versions: 1 2 3 4 5 6 7 8 9 10 11 12 13 14 15 16 17 18 19 20
000
FTUS43 KDTX 020715 AAB
TAFFNT
TAF AMD
KFNT 020715Z 0207/0306 VRB04KT P6SM OVC015
      TEMPO 0207/0209 2SM BR BKN003
     FM021300 05007KT P6SM BKN040
     FM030100 04005KT P6SM SKC=

USA.gov is the U.S. government's official web portal to all federal, state and local government web resources and services.